Time;durP1;ratioP1;P1;durP2;ratioP2;P2;SDS_P1;SDS_P2;PMS_P1;PMS_P2;Temp;Humidity;BMP_temperature;BMP_pressure;BME280_temperature;BME280_humidity;BME280_pressure;Samples;Min_cycle;Max_cycle;Signal;HPM_P1;HPM_P2
2022/08/20 03:01:13;;;;;;;8.97;6.03;;;17.10;99.90;;;;;;5823291;23;94355;-72
2022/08/20 03:03:40;;;;;;;9.48;6.05;;;17.00;99.90;;;;;;4821615;29;92448;-72
2022/08/20 03:06:09;;;;;;;13.55;5.72;;;17.00;99.90;;;;;;4826344;29;93841;-72
2022/08/20 03:08:36;;;;;;;8.48;5.53;;;17.00;99.90;;;;;;4829247;29;92382;-72
2022/08/20 03:11:02;;;;;;;11.15;6.07;;;16.90;99.90;;;;;;4823281;29;91981;-71
2022/08/20 03:13:27;;;;;;;9.55;5.65;;;16.80;99.90;;;;;;4823979;29;92052;-74
2022/08/20 03:15:59;;;;;;;9.15;5.88;;;16.90;99.90;;;;;;4821500;29;90630;-72
2022/08/20 03:18:29;;;;;;;8.93;5.90;;;16.80;99.90;;;;;;4822570;29;91851;-71
2022/08/20 03:20:55;;;;;;;9.55;5.70;;;16.70;99.90;;;;;;4838947;29;92085;-71
2022/08/20 03:23:21;;;;;;;8.75;5.88;;;16.70;99.90;;;;;;4826505;29;92835;-70
2022/08/20 03:25:48;;;;;;;8.18;5.25;;;16.70;99.90;;;;;;4825225;29;91341;-72
2022/08/20 03:28:14;;;;;;;8.77;5.75;;;16.70;99.90;;;;;;4826326;29;93138;-72
2022/08/20 03:30:40;;;;;;;9.20;5.35;;;16.80;99.90;;;;;;4822684;29;91996;-72
2022/08/20 03:33:07;;;;;;;7.85;5.38;;;16.90;99.90;;;;;;4822410;29;91738;-73
2022/08/20 03:35:34;;;;;;;9.88;5.63;;;17.00;99.90;;;;;;4825550;29;91926;-72
2022/08/20 03:38:00;;;;;;;9.57;5.20;;;17.00;99.90;;;;;;4825851;29;92300;-75
2022/08/20 03:40:31;;;;;;;9.23;6.35;;;17.00;99.90;;;;;;4821506;29;91839;-70
2022/08/20 03:42:57;;;;;;;8.98;5.68;;;17.00;99.90;;;;;;4812572;29;91408;-71
2022/08/20 03:45:25;;;;;;;8.23;5.60;;;17.00;99.90;;;;;;4824605;29;92091;-69
2022/08/20 03:47:52;;;;;;;8.60;5.60;;;17.00;99.90;;;;;;4820619;29;93277;-70
2022/08/20 03:50:20;;;;;;;8.48;5.72;;;17.00;99.90;;;;;;4825091;29;92116;-71
2022/08/20 03:52:46;;;;;;;8.50;5.40;;;17.10;99.90;;;;;;4822807;29;92108;-73
2022/08/20 03:55:12;;;;;;;8.93;5.32;;;17.10;99.90;;;;;;4818945;29;91281;-70
2022/08/20 03:57:50;;;;;;;9.18;6.20;;;17.00;99.90;;;;;;4826273;29;92020;-69
2022/08/20 04:00:22;;;;;;;9.45;6.13;;;17.10;99.90;;;;;;4824582;29;91911;-71
2022/08/20 04:02:47;;;;;;;10.65;6.20;;;17.00;99.90;;;;;;4820224;29;92722;-73
2022/08/20 04:05:13;;;;;;;10.90;6.57;;;16.90;99.90;;;;;;4818688;29;91189;-73
2022/08/20 04:07:39;;;;;;;11.60;7.82;;;16.80;99.90;;;;;;4822525;29;92380;-72
2022/08/20 04:10:09;;;;;;;12.18;7.28;;;16.70;99.90;;;;;;4820691;29;92344;-72
2022/08/20 04:12:39;;;;;;;;;;;16.60;99.90;;;;;;4823079;29;92657;-72
2022/08/20 04:15:14;;;;;;;10.25;6.70;;;16.60;99.90;;;;;;4826213;29;92037;-72
2022/08/20 04:17:41;;;;;;;10.73;7.15;;;16.70;99.90;;;;;;4823758;29;92034;-71
2022/08/20 04:20:10;;;;;;;11.25;7.00;;;16.60;99.90;;;;;;4818353;29;92595;-73
2022/08/20 04:22:36;;;;;;;9.95;6.60;;;16.60;99.90;;;;;;4817033;29;91308;-73
2022/08/20 04:25:03;;;;;;;11.48;6.65;;;16.60;99.90;;;;;;4816189;29;91329;-73
2022/08/20 04:27:31;;;;;;;13.50;8.00;;;16.60;99.90;;;;;;4820313;29;92032;-72
2022/08/20 04:29:58;;;;;;;13.30;7.57;;;16.60;99.90;;;;;;4808198;29;92528;-73
2022/08/20 04:32:24;;;;;;;11.13;7.93;;;16.50;99.90;;;;;;4818880;29;91976;-72
2022/08/20 04:34:51;;;;;;;14.70;8.23;;;16.40;99.90;;;;;;4812476;29;91807;-73
2022/08/20 04:37:21;;;;;;;13.07;8.45;;;16.30;99.90;;;;;;4814091;29;92600;-71
2022/08/20 04:40:52;;;;;;;12.95;8.60;;;16.20;99.90;;;;;;4821547;29;92256;-72
2022/08/20 04:42:36;;;;;;;13.15;7.63;;;16.20;99.90;;;;;;4818072;29;91427;-74
2022/08/20 04:45:04;;;;;;;11.82;7.40;;;16.40;99.90;;;;;;4807665;29;91569;-72
2022/08/20 04:47:30;;;;;;;11.60;7.72;;;16.50;99.90;;;;;;4812267;29;92251;-74
2022/08/20 04:49:59;;;;;;;13.05;8.10;;;16.60;99.90;;;;;;4813070;29;91345;-75
2022/08/20 04:52:26;;;;;;;11.73;7.90;;;16.60;99.90;;;;;;4818652;29;91742;-74
2022/08/20 04:54:55;;;;;;;10.55;7.18;;;16.60;99.90;;;;;;4825270;29;90697;-73
2022/08/20 04:57:22;;;;;;;11.13;7.40;;;16.70;99.90;;;;;;4815894;29;92741;-73
2022/08/20 04:59:50;;;;;;;11.93;7.43;;;16.80;99.90;;;;;;4813224;29;92077;-72
2022/08/20 05:02:17;;;;;;;9.75;6.57;;;16.80;99.90;;;;;;4815363;29;92932;-75
2022/08/20 05:04:43;;;;;;;12.73;6.63;;;17.00;99.90;;;;;;4813028;29;91288;-73
2022/08/20 05:07:11;;;;;;;12.18;8.13;;;17.00;99.90;;;;;;4812328;29;92270;-72
2022/08/20 05:09:37;;;;;;;9.77;6.75;;;17.00;99.90;;;;;;4812654;29;92072;-73
2022/08/20 05:12:03;;;;;;;11.98;7.60;;;16.90;99.90;;;;;;4822142;29;91931;-73
2022/08/20 05:14:30;;;;;;;10.25;6.88;;;17.00;99.90;;;;;;4814517;29;94268;-72
2022/08/20 05:16:56;;;;;;;10.70;6.75;;;16.90;99.90;;;;;;4819906;29;92370;-71
2022/08/20 05:19:23;;;;;;;9.73;6.53;;;17.00;99.90;;;;;;4811566;29;92002;-74
2022/08/20 05:21:51;;;;;;;9.00;6.35;;;17.10;99.90;;;;;;4819524;29;91706;-74
2022/08/20 05:24:16;;;;;;;11.18;6.88;;;17.20;99.90;;;;;;4818308;29;91572;-71
2022/08/20 05:26:42;;;;;;;9.52;6.88;;;17.40;99.90;;;;;;4810030;29;92988;-71
2022/08/20 05:29:08;;;;;;;10.45;6.35;;;17.40;99.90;;;;;;4813554;29;92556;-74
2022/08/20 05:31:34;;;;;;;8.77;6.03;;;17.50;99.90;;;;;;4814277;29;91825;-75
2022/08/20 05:34:02;;;;;;;8.35;6.25;;;17.60;99.90;;;;;;4814137;29;91367;-75
2022/08/20 05:36:28;;;;;;;11.68;6.57;;;17.70;99.90;;;;;;4818908;29;93109;-77
2022/08/20 05:38:54;;;;;;;9.10;6.43;;;17.80;99.90;;;;;;4816259;29;92355;-72
2022/08/20 05:41:20;;;;;;;10.88;6.65;;;17.90;99.90;;;;;;4812891;29;92007;-76
2022/08/20 05:43:45;;;;;;;10.57;6.10;;;18.10;99.90;;;;;;4817706;29;91435;-74
2022/08/20 05:46:12;;;;;;;7.18;5.05;;;19.00;99.90;;;;;;4817139;29;92251;-74
2022/08/20 05:48:37;;;;;;;8.25;5.78;;;20.20;99.90;;;;;;4814149;29;91956;-73
2022/08/20 05:51:03;;;;;;;9.95;6.50;;;20.80;99.90;;;;;;4813232;29;92937;-74
2022/08/20 05:53:29;;;;;;;8.07;6.22;;;21.20;99.90;;;;;;4818156;29;92206;-75
2022/08/20 05:55:55;;;;;;;9.77;5.78;;;21.80;99.90;;;;;;4811455;29;91911;-74
2022/08/20 05:58:28;;;;;;;8.68;5.85;;;23.30;99.90;;;;;;4812243;29;92604;-74
2022/08/20 06:00:54;;;;;;;8.45;5.57;;;24.60;98.00;;;;;;4816751;29;91896;-75
2022/08/20 06:06:05;;;;;;;9.82;5.63;;;26.00;92.00;;;;;;4817999;29;92200;-74
2022/08/20 06:08:31;;;;;;;6.78;5.35;;;25.90;87.00;;;;;;4814638;29;91247;-72
2022/08/20 06:10:57;;;;;;;6.82;5.18;;;25.40;87.90;;;;;;4817126;29;91590;-75
2022/08/20 06:13:23;;;;;;;9.05;5.97;;;25.10;89.20;;;;;;4815063;29;92418;-74
2022/08/20 06:15:49;;;;;;;9.55;5.18;;;25.40;87.10;;;;;;4816775;29;92585;-75
2022/08/20 06:18:15;;;;;;;6.93;5.40;;;26.80;88.90;;;;;;4814440;29;93093;-72
2022/08/20 06:20:41;;;;;;;7.32;4.90;;;28.10;80.90;;;;;;4813168;29;93840;-72
2022/08/20 06:23:07;;;;;;;7.05;4.50;;;29.10;78.00;;;;;;4814237;29;91539;-71
2022/08/20 06:25:34;;;;;;;5.55;4.60;;;30.00;74.80;;;;;;4818062;29;92392;-73
2022/08/20 06:28:00;;;;;;;6.03;4.68;;;30.60;69.30;;;;;;4813448;29;91459;-71
2022/08/20 06:30:26;;;;;;;8.70;5.13;;;31.00;63.50;;;;;;4812978;29;91844;-72
2022/08/20 06:32:52;;;;;;;7.82;4.80;;;30.90;60.20;;;;;;4814825;29;92055;-71
2022/08/20 06:35:17;;;;;;;5.22;4.35;;;30.90;64.50;;;;;;4816256;29;92094;-72
2022/08/20 06:37:43;;;;;;;15.13;5.63;;;32.20;63.40;;;;;;4815036;29;92174;-72
2022/08/20 06:40:12;;;;;;;4.65;3.90;;;33.20;60.80;;;;;;4816071;29;92941;-72
2022/08/20 06:42:42;;;;;;;5.10;4.22;;;32.80;57.10;;;;;;4814511;29;92194;-72
2022/08/20 06:45:10;;;;;;;6.25;3.78;;;32.10;60.80;;;;;;4812740;29;92296;-73
2022/08/20 06:47:39;;;;;;;5.40;4.05;;;33.30;59.60;;;;;;4812502;29;91355;-72
2022/08/20 06:50:08;;;;;;;3.78;3.00;;;34.30;57.00;;;;;;4816186;29;91464;-73
2022/08/20 06:52:38;;;;;;;3.58;2.72;;;34.30;55.70;;;;;;4818661;29;93339;-73
2022/08/20 06:55:05;;;;;;;6.07;4.13;;;35.00;54.20;;;;;;4814130;29;92359;-73
2022/08/20 06:57:30;;;;;;;11.35;3.80;;;35.00;56.00;;;;;;4821285;29;91895;-72
2022/08/20 06:59:57;;;;;;;5.85;3.10;;;35.50;52.70;;;;;;4817156;29;91405;-72
2022/08/20 07:02:23;;;;;;;4.13;2.92;;;35.30;53.60;;;;;;4813384;29;91389;-73
2022/08/20 07:04:49;;;;;;;3.47;2.33;;;36.20;51.90;;;;;;4813757;29;92858;-71
2022/08/20 07:07:18;;;;;;;5.00;3.40;;;36.70;50.80;;;;;;4820386;29;92912;-72
2022/08/20 07:09:45;;;;;;;3.47;2.88;;;37.30;50.50;;;;;;4816269;29;92114;-72
2022/08/20 07:12:10;;;;;;;3.90;2.85;;;37.90;48.10;;;;;;4821183;29;91527;-71
2022/08/20 07:14:36;;;;;;;3.55;2.75;;;38.70;49.40;;;;;;4822688;29;92312;-72
2022/08/20 07:17:03;;;;;;;3.70;3.25;;;39.30;47.20;;;;;;4822230;29;91892;-71
2022/08/20 07:19:29;;;;;;;3.75;2.90;;;40.30;46.10;;;;;;4818970;29;91874;-71
2022/08/20 07:21:54;;;;;;;5.60;4.20;;;41.10;43.10;;;;;;4826805;29;90611;-72
2022/08/20 07:24:20;;;;;;;3.40;2.95;;;40.40;44.00;;;;;;4826024;29;92208;-72
2022/08/20 07:26:46;;;;;;;3.65;3.25;;;39.10;44.30;;;;;;4823273;29;91971;-72
2022/08/20 07:29:11;;;;;;;3.45;3.15;;;38.70;45.80;;;;;;4821823;29;92263;-72
2022/08/20 07:34:21;;;;;;;4.20;2.60;;;37.90;45.90;;;;;;4814522;29;92121;-72
2022/08/20 07:36:47;;;;;;;3.42;2.25;;;38.30;44.40;;;;;;4817890;29;92002;-72
2022/08/20 07:39:13;;;;;;;5.75;2.90;;;38.50;43.80;;;;;;4817536;29;92840;-72
2022/08/20 07:41:39;;;;;;;3.25;2.75;;;39.50;43.60;;;;;;4821965;29;92556;-72
2022/08/20 07:44:05;;;;;;;3.30;2.38;;;40.60;41.90;;;;;;4815137;29;93008;-72
2022/08/20 07:46:31;;;;;;;3.47;3.08;;;41.70;42.60;;;;;;4812987;29;92712;-72
2022/08/20 07:48:57;;;;;;;4.53;2.95;;;42.50;39.40;;;;;;4818651;29;92462;-72
2022/08/20 07:51:23;;;;;;;4.03;3.55;;;42.70;40.20;;;;;;4813044;29;91404;-72
2022/08/20 07:53:50;;;;;;;4.93;3.35;;;42.40;41.70;;;;;;4812134;29;92883;-72
2022/08/20 07:56:20;;;;;;;4.00;3.55;;;43.30;37.60;;;;;;4821649;29;93058;-71
2022/08/20 07:58:52;;;;;;;3.53;3.22;;;44.00;39.50;;;;;;4821472;29;91931;-71
2022/08/20 08:01:19;;;;;;;4.72;4.25;;;44.10;37.00;;;;;;4818282;29;92606;-71
2022/08/20 08:03:45;;;;;;;3.75;3.05;;;44.00;36.50;;;;;;4815255;29;96431;-72
2022/08/20 08:06:12;;;;;;;3.33;3.03;;;43.80;39.10;;;;;;4809010;29;92387;-72
2022/08/20 08:08:39;;;;;;;4.43;4.03;;;44.40;37.50;;;;;;4814292;29;92200;-72
2022/08/20 08:11:06;;;;;;;3.80;3.47;;;45.10;38.40;;;;;;4818160;29;91225;-73
2022/08/20 08:13:36;;;;;;;3.85;3.33;;;46.10;36.30;;;;;;4816594;29;92104;-72
2022/08/20 08:16:05;;;;;;;3.08;2.70;;;46.40;34.10;;;;;;4811128;29;91449;-72
2022/08/20 08:18:37;;;;;;;3.50;3.10;;;46.20;35.10;;;;;;4810896;29;92358;-72
2022/08/20 08:21:04;;;;;;;4.43;3.53;;;44.10;35.10;;;;;;4813263;29;91275;-72
2022/08/20 08:23:30;;;;;;;3.92;3.60;;;42.30;38.00;;;;;;4810433;29;91882;-72
2022/08/20 08:25:55;;;;;;;4.05;3.70;;;42.90;37.70;;;;;;4816354;29;91792;-72
2022/08/20 08:28:21;;;;;;;4.18;3.72;;;44.20;35.00;;;;;;4821180;29;91824;-71
2022/08/20 08:30:47;;;;;;;3.58;3.28;;;43.70;36.60;;;;;;4815344;29;91569;-71
2022/08/20 08:33:30;;;;;;;4.65;3.67;;;43.70;36.70;;;;;;4817455;29;91885;-73
2022/08/20 08:36:16;;;;;;;5.50;5.00;;;44.20;36.00;;;;;;4817614;29;91352;-71
2022/08/20 08:38:43;;;;;;;6.47;4.25;;;39.90;39.20;;;;;;4813549;29;92514;-72
2022/08/20 08:41:24;;;;;;;4.38;2.97;;;35.10;45.00;;;;;;4822499;29;91818;-72
2022/08/20 08:43:52;;;;;;;3.88;3.25;;;34.90;44.50;;;;;;4815987;29;93906;-73
2022/08/20 08:46:23;;;;;;;3.58;2.92;;;34.50;45.80;;;;;;4820464;29;93056;-74
2022/08/20 08:48:52;;;;;;;3.20;2.90;;;33.70;47.70;;;;;;4810691;29;91870;-73
2022/08/20 08:51:28;;;;;;;4.93;3.25;;;32.90;50.00;;;;;;4819372;29;92786;-72
2022/08/20 08:53:55;;;;;;;3.97;2.35;;;32.70;50.90;;;;;;4816248;29;92467;-72
2022/08/20 08:56:26;;;;;;;5.63;2.58;;;34.00;49.20;;;;;;4818427;29;91282;-73
2022/08/20 08:59:00;;;;;;;3.85;3.33;;;38.00;44.70;;;;;;4811680;29;91700;-72
2022/08/20 09:01:28;;;;;;;4.50;4.07;;;42.00;40.60;;;;;;4811936;29;90786;-72
2022/08/20 09:03:53;;;;;;;3.90;3.13;;;44.80;38.00;;;;;;4811802;29;92173;-73
2022/08/20 09:06:23;;;;;;;5.13;4.63;;;46.60;34.90;;;;;;4811562;29;92389;-72
2022/08/20 09:08:52;;;;;;;4.55;3.75;;;46.90;36.00;;;;;;4812093;29;94581;-72
2022/08/20 09:11:20;;;;;;;5.45;4.50;;;47.70;33.20;;;;;;4810019;29;92409;-72
2022/08/20 09:13:46;;;;;;;4.65;4.10;;;47.50;32.60;;;;;;4816378;29;92250;-73
2022/08/20 09:16:13;;;;;;;4.57;4.15;;;44.00;35.00;;;;;;4818340;29;92760;-72
2022/08/20 09:18:39;;;;;;;4.72;4.32;;;41.60;36.90;;;;;;4807477;29;93126;-72
2022/08/20 09:21:05;;;;;;;4.00;3.67;;;38.60;40.30;;;;;;4814749;29;93294;-73
2022/08/20 09:23:31;;;;;;;3.05;2.72;;;36.20;43.40;;;;;;4815952;29;91985;-72
2022/08/20 09:25:57;;;;;;;4.72;2.67;;;34.00;47.40;;;;;;4815701;29;93413;-72
2022/08/20 09:28:23;;;;;;;3.58;2.42;;;32.70;48.20;;;;;;4818404;29;91636;-72
2022/08/20 09:30:49;;;;;;;2.47;2.10;;;31.30;52.70;;;;;;4813159;29;91898;-71
2022/08/20 09:33:15;;;;;;;3.30;1.85;;;30.80;54.10;;;;;;4817405;29;93048;-72
2022/08/20 09:35:41;;;;;;;2.78;1.90;;;30.60;54.40;;;;;;4815213;29;92884;-72
2022/08/20 09:38:07;;;;;;;2.33;1.75;;;30.40;56.20;;;;;;4814552;29;91650;-72
2022/08/20 09:40:33;;;;;;;4.53;2.28;;;30.10;55.50;;;;;;4817536;29;91570;-72
2022/08/20 09:42:59;;;;;;;2.97;2.42;;;29.80;56.30;;;;;;4811648;29;92033;-71
2022/08/20 09:45:25;;;;;;;3.25;1.60;;;29.50;57.60;;;;;;4813446;29;92941;-73
2022/08/20 09:47:50;;;;;;;7.70;2.33;;;29.40;57.90;;;;;;4817079;29;92601;-72
2022/08/20 09:50:16;;;;;;;2.95;1.70;;;29.70;56.20;;;;;;4811214;29;91409;-72
2022/08/20 09:52:46;;;;;;;3.67;2.22;;;30.80;57.30;;;;;;4815119;29;92646;-72
2022/08/20 09:55:32;;;;;;;4.53;2.60;;;32.80;52.00;;;;;;4811568;29;91862;-72
2022/08/20 09:58:00;;;;;;;3.45;2.03;;;33.60;50.60;;;;;;4814496;29;93173;-71
2022/08/20 10:00:26;;;;;;;3.92;2.55;;;33.90;48.50;;;;;;4813719;29;91406;-72
2022/08/20 10:02:51;;;;;;;7.28;4.82;;;34.40;47.90;;;;;;4810953;29;92284;-72
2022/08/20 10:05:17;;;;;;;2.67;2.10;;;33.90;48.80;;;;;;4805512;29;91819;-73
2022/08/20 10:07:43;;;;;;;12.88;9.15;;;33.40;49.50;;;;;;4813179;29;91687;-71
2022/08/20 10:10:12;;;;;;;12.88;8.10;;;32.80;51.10;;;;;;4812997;29;92892;-72
2022/08/20 10:12:39;;;;;;;11.18;7.88;;;32.20;52.40;;;;;;4815360;29;92381;-72
2022/08/20 10:15:05;;;;;;;4.82;2.88;;;31.80;52.60;;;;;;4815334;29;92117;-71
2022/08/20 10:17:32;;;;;;;8.52;2.70;;;31.40;51.80;;;;;;4814484;29;91594;-71
2022/08/20 10:19:57;;;;;;;3.20;2.17;;;30.50;52.50;;;;;;4811791;29;92137;-72
2022/08/20 10:22:24;;;;;;;3.33;2.40;;;30.00;53.60;;;;;;4813297;29;93080;-72
2022/08/20 10:24:49;;;;;;;5.25;3.42;;;29.80;54.30;;;;;;4814790;29;92777;-72
2022/08/20 10:27:15;;;;;;;5.53;3.15;;;29.70;55.10;;;;;;4814397;29;91601;-72
2022/08/20 10:29:41;;;;;;;5.18;3.42;;;29.10;57.20;;;;;;4819019;29;93144;-72
2022/08/20 10:32:12;;;;;;;3.63;2.15;;;29.00;58.50;;;;;;4811276;29;92360;-72
2022/08/20 10:34:40;;;;;;;4.60;2.38;;;29.20;59.90;;;;;;4817725;29;92706;-71
2022/08/20 10:37:06;;;;;;;3.80;2.13;;;29.30;58.70;;;;;;4813601;29;93314;-72
2022/08/20 10:39:31;;;;;;;5.30;3.20;;;29.20;59.60;;;;;;4813373;29;90616;-72
2022/08/20 10:41:57;;;;;;;3.42;2.60;;;29.00;59.10;;;;;;4814922;29;92092;-71
2022/08/20 10:44:23;;;;;;;3.38;2.53;;;29.00;59.50;;;;;;4815404;29;91898;-71
2022/08/20 10:46:48;;;;;;;3.60;1.90;;;28.80;59.80;;;;;;4811729;29;92605;-70
2022/08/20 10:49:14;;;;;;;3.90;2.50;;;28.50;61.30;;;;;;4812793;29;91536;-71
2022/08/20 10:51:40;;;;;;;6.05;2.97;;;28.30;61.70;;;;;;4813106;29;92369;-71
2022/08/20 10:54:05;;;;;;;4.95;2.00;;;27.90;62.70;;;;;;4817243;29;91785;-72
2022/08/20 10:56:31;;;;;;;4.45;1.60;;;27.50;63.40;;;;;;4819026;29;92177;-72
2022/08/20 10:58:57;;;;;;;3.42;1.08;;;27.10;65.40;;;;;;4815929;29;91832;-71
2022/08/20 11:01:23;;;;;;;2.55;0.73;;;26.80;66.70;;;;;;4820070;29;92238;-73
2022/08/20 11:03:48;;;;;;;3.03;0.93;;;26.80;66.10;;;;;;4815268;29;92142;-72
2022/08/20 11:06:14;;;;;;;2.13;0.55;;;27.20;66.00;;;;;;4821166;29;92011;-72
2022/08/20 11:08:40;;;;;;;2.00;1.08;;;27.40;63.40;;;;;;4820514;29;91896;-72
2022/08/20 11:11:06;;;;;;;2.08;0.75;;;27.90;61.20;;;;;;4818802;29;93230;-72
2022/08/20 11:13:35;;;;;;;1.65;0.90;;;28.50;61.50;;;;;;4818153;29;93449;-71
2022/08/20 11:16:02;;;;;;;2.03;0.75;;;29.10;60.60;;;;;;4822590;29;92033;-71
2022/08/20 11:18:28;;;;;;;1.73;0.80;;;29.20;59.10;;;;;;4820802;29;92061;-73
2022/08/20 11:20:54;;;;;;;1.58;1.15;;;29.30;59.40;;;;;;4816697;29;91655;-74
2022/08/20 11:23:20;;;;;;;4.45;2.13;;;28.90;60.90;;;;;;4821687;29;92737;-72
2022/08/20 11:25:46;;;;;;;4.18;2.13;;;28.90;60.50;;;;;;4823207;29;91773;-71
2022/08/20 11:28:12;;;;;;;3.17;1.63;;;29.00;61.00;;;;;;4818400;29;91040;-71
2022/08/20 11:30:38;;;;;;;2.70;1.83;;;29.00;59.80;;;;;;4818494;29;92395;-72
2022/08/20 11:33:04;;;;;;;2.42;1.27;;;28.50;60.20;;;;;;4821797;29;91772;-71
2022/08/20 11:35:33;;;;;;;1.83;1.05;;;28.30;60.80;;;;;;4814150;29;92215;-74
2022/08/20 11:38:00;;;;;;;2.63;1.42;;;28.10;61.10;;;;;;4817391;29;91778;-72
2022/08/20 11:40:27;;;;;;;1.73;0.82;;;27.80;62.50;;;;;;4817918;29;92721;-72
2022/08/20 11:42:53;;;;;;;2.80;1.10;;;27.50;63.50;;;;;;4817174;29;92315;-72
2022/08/20 11:45:19;;;;;;;1.67;1.02;;;27.30;64.10;;;;;;4817799;29;91921;-71
2022/08/20 11:47:45;;;;;;;3.50;1.15;;;27.00;65.20;;;;;;4816178;29;91629;-71
2022/08/20 11:50:15;;;;;;;2.15;1.27;;;26.80;66.80;;;;;;4815086;29;92450;-71
2022/08/20 11:52:41;;;;;;;1.13;0.68;;;26.80;68.30;;;;;;4817643;29;93472;-72
2022/08/20 11:55:09;;;;;;;1.52;0.80;;;26.70;66.10;;;;;;4814129;29;91697;-71
2022/08/20 11:57:39;;;;;;;1.02;0.38;;;26.60;67.50;;;;;;4823279;29;91405;-71
2022/08/20 12:00:13;;;;;;;1.42;0.80;;;26.70;68.20;;;;;;4811749;29;92737;-71
2022/08/20 12:02:40;;;;;;;1.10;0.65;;;26.90;68.60;;;;;;4810933;29;92949;-71
2022/08/20 12:05:06;;;;;;;2.88;1.17;;;27.10;66.20;;;;;;4822413;29;91884;-71
2022/08/20 12:07:32;;;;;;;2.28;1.02;;;27.50;63.30;;;;;;4821181;29;91819;-71
2022/08/20 12:09:58;;;;;;;1.70;0.88;;;27.00;62.30;;;;;;4821930;29;91501;-71
2022/08/20 12:12:23;;;;;;;0.70;0.40;;;26.80;66.60;;;;;;4818947;29;91857;-71
2022/08/20 12:14:53;;;;;;;0.93;0.45;;;27.00;66.50;;;;;;4814965;29;91417;-72
2022/08/20 12:17:26;;;;;;;0.70;0.25;;;27.30;63.80;;;;;;4820781;29;91304;-72
2022/08/20 12:19:53;;;;;;;0.90;0.30;;;27.70;65.40;;;;;;4821707;29;92354;-72
2022/08/20 12:22:19;;;;;;;0.73;0.40;;;27.90;63.80;;;;;;4814397;29;92538;-71
2022/08/20 12:24:45;;;;;;;1.38;0.70;;;27.50;63.10;;;;;;4821952;29;93050;-71
2022/08/20 12:27:19;;;;;;;1.30;0.80;;;27.10;63.20;;;;;;4811507;29;91305;-71
2022/08/20 12:29:46;;;;;;;1.20;0.65;;;27.00;66.30;;;;;;4816204;29;91692;-71
2022/08/20 12:32:13;;;;;;;1.85;0.52;;;27.00;62.90;;;;;;4820984;29;91880;-72
2022/08/20 12:34:40;;;;;;;1.23;0.50;;;26.70;65.80;;;;;;4816244;29;93722;-71
2022/08/20 12:37:13;;;;;;;0.95;0.57;;;27.00;66.90;;;;;;4821965;29;91909;-72
2022/08/20 12:39:41;;;;;;;1.02;0.63;;;27.30;65.60;;;;;;4815273;29;92777;-71
2022/08/20 12:42:09;;;;;;;2.00;0.52;;;27.40;62.50;;;;;;4821654;29;92116;-71
2022/08/20 12:44:36;;;;;;;1.42;0.68;;;27.50;62.90;;;;;;4822651;29;91266;-74
2022/08/20 12:47:17;;;;;;;1.08;0.63;;;27.50;64.10;;;;;;4811738;29;92069;-72
2022/08/20 12:49:49;;;;;;;1.48;0.65;;;27.60;65.10;;;;;;4815628;29;92613;-71
2022/08/20 12:52:17;;;;;;;1.55;0.50;;;27.80;64.20;;;;;;4813051;29;92472;-72
2022/08/20 12:54:43;;;;;;;1.30;0.90;;;27.70;64.20;;;;;;4821755;29;91910;-72
2022/08/20 12:57:28;;;;;;;1.23;0.73;;;27.60;63.70;;;;;;4808373;29;91623;-72
2022/08/20 13:00:06;;;;;;;2.78;0.70;;;27.60;65.40;;;;;;4809493;29;92466;-72
2022/08/20 13:02:32;;;;;;;2.45;0.68;;;27.80;64.70;;;;;;4820522;29;91974;-71
2022/08/20 13:04:58;;;;;;;1.48;0.82;;;27.90;63.90;;;;;;4818791;29;92078;-72
2022/08/20 13:07:24;;;;;;;2.60;1.25;;;28.10;63.50;;;;;;4814264;29;91107;-71
2022/08/20 13:09:50;;;;;;;1.70;0.90;;;27.90;63.90;;;;;;4810579;29;91766;-72
2022/08/20 13:12:15;;;;;;;2.13;1.13;;;28.10;64.60;;;;;;4812335;29;91932;-72
2022/08/20 13:14:41;;;;;;;1.65;1.17;;;28.30;64.10;;;;;;4817608;29;92207;-71
2022/08/20 13:17:08;;;;;;;3.08;1.38;;;28.40;63.00;;;;;;4814367;29;91365;-72
2022/08/20 13:19:36;;;;;;;1.58;1.05;;;28.20;63.70;;;;;;4812840;29;92299;-71
2022/08/20 13:22:02;;;;;;;5.82;1.10;;;27.90;63.70;;;;;;4821320;29;95157;-71
2022/08/20 13:24:28;;;;;;;2.13;1.15;;;27.80;63.50;;;;;;4819809;29;91275;-71
2022/08/20 13:27:23;;;;;;;1.70;1.05;;;27.80;64.00;;;;;;4813474;29;91927;-71
2022/08/20 13:29:51;;;;;;;2.10;1.02;;;27.60;64.50;;;;;;4819667;29;92304;-71
2022/08/20 13:32:17;;;;;;;1.98;1.40;;;27.20;64.30;;;;;;4815014;29;92326;-73
2022/08/20 13:34:44;;;;;;;2.25;1.00;;;27.00;65.90;;;;;;4812460;29;92074;-71
2022/08/20 13:37:13;;;;;;;2.00;1.13;;;26.90;66.00;;;;;;4814369;29;92418;-71
2022/08/20 13:39:39;;;;;;;2.17;1.13;;;26.80;66.60;;;;;;4818280;29;93000;-71
2022/08/20 13:42:06;;;;;;;2.00;1.15;;;26.80;66.30;;;;;;4818405;29;92109;-71
2022/08/20 13:44:31;;;;;;;2.33;0.77;;;26.60;67.60;;;;;;4812327;29;91747;-71
2022/08/20 13:46:57;;;;;;;1.70;0.93;;;26.50;67.40;;;;;;4810361;29;91938;-71
2022/08/20 13:49:23;;;;;;;1.90;1.33;;;26.60;66.90;;;;;;4813711;29;92273;-72
2022/08/20 13:51:48;;;;;;;1.67;0.60;;;26.20;68.70;;;;;;4809971;29;92528;-71
2022/08/20 13:54:14;;;;;;;1.10;0.60;;;26.20;67.30;;;;;;4815532;29;92089;-72
2022/08/20 13:56:40;;;;;;;1.42;0.57;;;26.30;67.20;;;;;;4816896;29;91112;-72
2022/08/20 13:59:05;;;;;;;1.40;0.82;;;26.50;67.20;;;;;;4814996;29;92353;-70
2022/08/20 14:01:31;;;;;;;1.30;0.60;;;26.20;67.80;;;;;;4812716;29;93880;-71
2022/08/20 14:03:57;;;;;;;2.33;0.82;;;26.00;69.00;;;;;;4814103;29;92910;-71
2022/08/20 14:06:22;;;;;;;3.25;0.73;;;25.90;70.60;;;;;;4819416;29;91735;-71
2022/08/20 14:08:48;;;;;;;3.13;0.82;;;26.10;70.10;;;;;;4811475;29;91834;-71
2022/08/20 14:11:14;;;;;;;1.25;0.52;;;26.20;68.20;;;;;;4819749;29;92114;-71
2022/08/20 14:13:39;;;;;;;4.22;0.88;;;25.90;69.10;;;;;;4815343;29;92715;-71
2022/08/20 14:16:05;;;;;;;1.63;0.95;;;26.20;68.20;;;;;;4820991;29;92078;-71
2022/08/20 14:18:31;;;;;;;1.50;0.70;;;25.70;67.50;;;;;;4812411;29;91816;-71
2022/08/20 14:20:57;;;;;;;1.10;0.50;;;25.60;69.80;;;;;;4817901;29;92452;-71
2022/08/20 14:23:22;;;;;;;1.42;0.68;;;26.00;69.00;;;;;;4817943;29;92229;-71
2022/08/20 14:25:49;;;;;;;1.25;0.70;;;26.40;68.30;;;;;;4818455;29;91636;-72
2022/08/20 14:28:21;;;;;;;1.10;0.57;;;26.60;67.50;;;;;;4816881;29;93392;-72
2022/08/20 14:30:48;;;;;;;1.17;0.60;;;26.60;68.50;;;;;;4820030;29;93124;-71
2022/08/20 14:33:14;;;;;;;1.10;0.50;;;26.60;67.10;;;;;;4817859;29;91394;-70
2022/08/20 14:35:40;;;;;;;2.42;0.70;;;26.60;68.20;;;;;;4822307;29;91379;-71
2022/08/20 14:38:07;;;;;;;1.38;0.88;;;26.30;68.80;;;;;;4815929;29;92386;-71
2022/08/20 14:40:33;;;;;;;0.95;0.60;;;26.40;69.10;;;;;;4821781;29;92089;-72
2022/08/20 14:42:59;;;;;;;1.23;0.52;;;26.50;68.60;;;;;;4817133;29;91561;-71
2022/08/20 14:45:25;;;;;;;1.02;0.43;;;26.50;68.00;;;;;;4813092;29;90599;-71
2022/08/20 14:47:56;;;;;;;0.95;0.43;;;26.60;68.80;;;;;;4810193;29;92597;-71
2022/08/20 14:50:23;;;;;;;1.85;0.73;;;26.60;67.80;;;;;;4817987;29;91680;-71
2022/08/20 14:52:50;;;;;;;1.17;0.70;;;26.50;66.80;;;;;;4820198;29;92280;-71
2022/08/20 14:55:19;;;;;;;1.50;0.70;;;26.40;65.90;;;;;;4826167;29;91868;-70
2022/08/20 14:57:45;;;;;;;1.27;0.77;;;26.30;65.50;;;;;;4815494;29;92415;-72
2022/08/20 15:00:16;;;;;;;1.00;0.40;;;26.20;67.00;;;;;;4823274;29;92070;-71
2022/08/20 15:02:43;;;;;;;1.38;0.63;;;26.20;68.00;;;;;;4818546;29;91449;-71
2022/08/20 15:05:09;;;;;;;1.17;0.73;;;26.00;69.80;;;;;;4821688;29;92216;-70
2022/08/20 15:07:41;;;;;;;2.20;0.82;;;26.00;69.40;;;;;;4821525;29;92210;-72
2022/08/20 15:10:18;;;;;;;1.58;0.65;;;25.80;67.20;;;;;;4816937;29;91980;-71
2022/08/20 15:12:43;;;;;;;1.52;0.60;;;25.90;67.30;;;;;;4819585;29;91808;-74
2022/08/20 15:15:12;;;;;;;1.50;0.80;;;25.90;68.70;;;;;;4823395;29;91542;-70
2022/08/20 15:17:37;;;;;;;3.92;0.77;;;25.90;70.40;;;;;;4821164;29;92664;-70
2022/08/20 15:20:09;;;;;;;7.32;0.75;;;25.90;68.80;;;;;;4817795;29;92279;-70
2022/08/20 15:22:35;;;;;;;1.20;0.63;;;25.90;70.00;;;;;;4820439;29;92503;-74
2022/08/20 15:25:01;;;;;;;1.40;1.00;;;25.90;70.10;;;;;;4819219;29;92747;-71
2022/08/20 15:27:27;;;;;;;1.98;0.65;;;25.90;68.40;;;;;;4832050;29;91822;-70
2022/08/20 15:29:53;;;;;;;1.52;0.77;;;25.90;68.00;;;;;;4826404;29;91939;-71
2022/08/20 15:32:20;;;;;;;1.33;0.52;;;25.80;69.90;;;;;;4824555;29;91278;-70
2022/08/20 15:34:46;;;;;;;1.85;0.63;;;25.80;70.30;;;;;;4821075;29;90928;-72
2022/08/20 15:37:17;;;;;;;1.73;0.63;;;25.60;71.10;;;;;;4815613;29;92135;-73
2022/08/20 15:39:44;;;;;;;1.00;0.32;;;25.40;70.00;;;;;;4821724;29;92131;-73
2022/08/20 15:42:11;;;;;;;2.13;0.52;;;24.70;72.80;;;;;;4824055;29;92263;-73
2022/08/20 15:44:37;;;;;;;1.70;0.57;;;24.70;72.90;;;;;;4820211;29;91820;-73
2022/08/20 15:47:15;;;;;;;1.30;0.40;;;24.70;73.70;;;;;;4818324;29;92425;-73
2022/08/20 15:49:42;;;;;;;1.00;0.35;;;24.40;74.90;;;;;;4814571;29;92027;-72
2022/08/20 15:52:09;;;;;;;3.47;1.13;;;24.30;76.90;;;;;;4819795;29;92738;-73